createdAt,value
2023-04-14T00:00:09.131Z,1001.53
2023-04-14T00:01:30.080Z,1001.52
2023-04-14T00:02:09.148Z,1001.56
2023-04-14T00:03:09.285Z,1001.53
2023-04-14T00:04:09.151Z,1001.55
2023-04-14T00:05:09.066Z,1001.56
2023-04-14T00:06:09.039Z,1001.55
2023-04-14T00:07:30.034Z,1001.56
2023-04-14T00:08:09.021Z,1001.55
2023-04-14T00:09:09.014Z,1001.55
2023-04-14T00:10:09.014Z,1001.53
2023-04-14T00:11:09.000Z,1001.52
2023-04-14T00:12:08.993Z,1001.52
2023-04-14T00:13:29.983Z,1001.50
2023-04-14T00:14:08.977Z,1001.50
2023-04-14T00:15:08.968Z,1001.49
2023-04-14T00:16:08.973Z,1001.46
2023-04-14T00:17:08.983Z,1001.50
2023-04-14T00:18:08.961Z,1001.51
2023-04-14T00:19:29.937Z,1001.48
2023-04-14T00:20:08.921Z,1001.55
2023-04-14T00:21:08.918Z,1001.55
2023-04-14T00:22:08.907Z,1001.58
2023-04-14T00:23:08.888Z,1001.63
2023-04-14T00:24:08.884Z,1001.68
2023-04-14T00:25:29.913Z,1001.66
2023-04-14T00:26:08.877Z,1001.68
2023-04-14T00:27:08.864Z,1001.69
2023-04-14T00:28:08.847Z,1001.70
2023-04-14T00:29:08.837Z,1001.73
2023-04-14T00:30:08.837Z,1001.76
2023-04-14T00:31:29.873Z,1001.76
2023-04-14T00:32:08.821Z,1001.71
2023-04-14T00:33:08.811Z,1001.69
2023-04-14T00:34:08.814Z,1001.70
2023-04-14T00:35:08.801Z,1001.68
2023-04-14T00:36:08.781Z,1001.70
2023-04-14T00:37:29.781Z,1001.73
2023-04-14T00:38:08.758Z,1001.77
2023-04-14T00:39:08.741Z,1001.75
2023-04-14T00:40:08.755Z,1001.78
2023-04-14T00:41:08.744Z,1001.78
2023-04-14T00:42:08.722Z,1001.78
2023-04-14T00:43:29.726Z,1001.80
2023-04-14T00:44:08.706Z,1001.82
2023-04-14T00:45:08.689Z,1001.85
2023-04-14T00:46:08.732Z,1001.81
2023-04-14T00:47:08.676Z,1001.81
2023-04-14T00:48:08.669Z,1001.79
2023-04-14T00:49:29.669Z,1001.77
2023-04-14T00:50:08.655Z,1001.79
2023-04-14T00:51:08.639Z,1001.78
2023-04-14T00:52:08.644Z,1001.79
2023-04-14T00:53:08.622Z,1001.80
2023-04-14T00:54:08.622Z,1001.79
2023-04-14T00:55:29.611Z,1001.81
2023-04-14T00:56:08.609Z,1001.80
2023-04-14T00:57:08.586Z,1001.84
2023-04-14T00:58:08.579Z,1001.87
2023-04-14T00:59:08.566Z,1001.88
2023-04-14T01:00:08.561Z,1001.88
2023-04-14T01:01:29.579Z,1001.88
2023-04-14T01:02:08.642Z,1001.90
2023-04-14T01:03:08.731Z,1001.95
2023-04-14T01:04:08.709Z,1001.94
2023-04-14T01:05:08.665Z,1001.95
2023-04-14T01:06:08.512Z,1001.98
2023-04-14T01:07:29.499Z,1001.95
2023-04-14T01:08:08.486Z,1001.97
2023-04-14T01:09:08.478Z,1001.96
2023-04-14T01:10:08.473Z,1001.96
2023-04-14T01:11:08.458Z,1002.00
2023-04-14T01:12:08.464Z,1002.00
2023-04-14T01:13:29.440Z,1001.95
2023-04-14T01:14:08.431Z,1001.95
2023-04-14T01:15:08.415Z,1001.97
2023-04-14T01:16:08.519Z,1002.02
2023-04-14T01:17:08.406Z,1001.97
2023-04-14T01:18:08.417Z,1001.96
2023-04-14T01:19:29.384Z,1002.00
2023-04-14T01:20:08.396Z,1002.00
2023-04-14T01:21:08.362Z,1002.02
2023-04-14T01:22:08.359Z,1002.02
2023-04-14T01:23:08.373Z,1002.00
2023-04-14T01:24:08.341Z,1002.03
2023-04-14T01:25:29.334Z,1002.04
2023-04-14T01:26:08.328Z,1002.00
2023-04-14T01:27:08.311Z,1002.01
2023-04-14T01:28:08.296Z,1002.02
2023-04-14T01:29:08.292Z,1002.04
2023-04-14T01:30:08.309Z,1002.04
2023-04-14T01:31:29.317Z,1002.07
2023-04-14T01:32:08.282Z,1002.08
2023-04-14T01:33:08.256Z,1002.08
2023-04-14T01:34:08.250Z,1002.06
2023-04-14T01:35:08.237Z,1002.09
2023-04-14T01:36:08.232Z,1002.07
2023-04-14T01:37:29.231Z,1002.10
2023-04-14T01:38:08.211Z,1002.08
2023-04-14T01:39:08.201Z,1002.04
2023-04-14T01:40:08.189Z,1002.11
2023-04-14T01:41:08.187Z,1002.09
2023-04-14T01:42:08.177Z,1002.10
2023-04-14T01:43:29.171Z,1002.12
2023-04-14T01:44:08.151Z,1002.11
2023-04-14T01:45:08.143Z,1002.09
2023-04-14T01:46:08.144Z,1002.10
2023-04-14T01:47:08.116Z,1002.07
2023-04-14T01:48:08.131Z,1002.10
2023-04-14T01:49:29.138Z,1002.05
2023-04-14T01:50:08.095Z,1002.09
2023-04-14T01:51:08.081Z,1002.07
2023-04-14T01:52:08.095Z,1002.06
2023-04-14T01:53:08.079Z,1002.05
2023-04-14T01:54:08.062Z,1002.06
2023-04-14T01:55:29.056Z,1002.08
2023-04-14T01:56:08.041Z,1002.05
2023-04-14T01:57:08.081Z,1002.07
2023-04-14T01:58:08.032Z,1002.02
2023-04-14T01:59:08.015Z,1002.01
2023-04-14T02:00:08.017Z,1002.00
2023-04-14T02:01:29.153Z,1002.01
2023-04-14T02:02:08.041Z,1001.99
2023-04-14T02:03:08.048Z,1002.02
2023-04-14T02:04:08.100Z,1002.00
2023-04-14T02:05:07.949Z,1002.02
2023-04-14T02:06:07.949Z,1001.98
2023-04-14T02:07:28.969Z,1002.02
2023-04-14T02:08:07.931Z,1002.03
2023-04-14T02:09:07.921Z,1002.06
2023-04-14T02:10:07.913Z,1002.00
2023-04-14T02:11:07.891Z,1002.03
2023-04-14T02:12:07.888Z,1002.01
2023-04-14T02:13:28.909Z,1002.04
2023-04-14T02:14:07.908Z,1002.05
2023-04-14T02:15:07.928Z,1002.04
2023-04-14T02:16:07.877Z,1002.08
2023-04-14T02:17:07.833Z,1002.07
2023-04-14T02:18:07.844Z,1002.12
2023-04-14T02:19:28.825Z,1002.08
2023-04-14T02:20:07.821Z,1002.07
2023-04-14T02:21:07.797Z,1002.11
2023-04-14T02:22:07.798Z,1002.09
2023-04-14T02:23:07.790Z,1002.06
2023-04-14T02:24:07.788Z,1002.04
2023-04-14T02:25:28.769Z,1002.07
2023-04-14T02:26:07.755Z,1002.03
2023-04-14T02:27:07.740Z,1002.02
2023-04-14T02:28:07.736Z,1001.99
2023-04-14T02:29:07.740Z,1002.01
2023-04-14T02:30:07.715Z,1002.03
2023-04-14T02:31:28.721Z,1002.00
2023-04-14T02:32:07.706Z,1002.02
2023-04-14T02:33:07.703Z,1002.02
2023-04-14T02:34:07.676Z,1002.04
2023-04-14T02:35:07.677Z,1002.06
2023-04-14T02:36:07.659Z,1002.04
2023-04-14T02:37:28.666Z,1002.05
2023-04-14T02:38:07.636Z,1002.05
2023-04-14T02:39:07.640Z,1002.03
2023-04-14T02:40:07.633Z,1002.00
2023-04-14T02:41:07.617Z,1002.01
2023-04-14T02:42:07.620Z,1002.01
2023-04-14T02:43:28.602Z,1001.99
2023-04-14T02:44:07.617Z,1002.01
2023-04-14T02:45:07.633Z,1002.01
2023-04-14T02:46:07.623Z,1002.04
2023-04-14T02:47:07.608Z,1002.00
2023-04-14T02:48:07.549Z,1002.06
2023-04-14T02:49:28.554Z,1002.04
2023-04-14T02:50:07.530Z,1002.02
2023-04-14T02:51:07.532Z,1002.04
2023-04-14T02:52:07.523Z,1002.04
2023-04-14T02:53:07.503Z,1002.06
2023-04-14T02:54:07.491Z,1002.03
2023-04-14T02:55:28.491Z,1002.05
2023-04-14T02:56:07.473Z,1002.04
2023-04-14T02:57:07.477Z,1002.05
2023-04-14T02:58:07.455Z,1002.12
2023-04-14T02:59:07.467Z,1002.11
2023-04-14T03:00:07.457Z,1002.17
2023-04-14T03:01:28.478Z,1002.13
2023-04-14T03:02:07.469Z,1002.14
2023-04-14T03:03:07.582Z,1002.15
2023-04-14T03:04:07.428Z,1002.14
2023-04-14T03:05:07.401Z,1002.21
2023-04-14T03:06:07.385Z,1002.16
2023-04-14T03:07:28.383Z,1002.18
2023-04-14T03:08:07.363Z,1002.20
2023-04-14T03:09:07.366Z,1002.18
2023-04-14T03:10:07.341Z,1002.21
2023-04-14T03:11:07.340Z,1002.19
2023-04-14T03:12:07.322Z,1002.17
2023-04-14T03:13:28.319Z,1002.19
2023-04-14T03:14:07.303Z,1002.22
2023-04-14T03:15:07.301Z,1002.18
2023-04-14T03:16:07.351Z,1002.25
2023-04-14T03:17:07.285Z,1002.22
2023-04-14T03:18:07.322Z,1002.20
2023-04-14T03:19:28.271Z,1002.17
2023-04-14T03:20:07.241Z,1002.18
2023-04-14T03:21:07.232Z,1002.15
2023-04-14T03:22:07.227Z,1002.18
2023-04-14T03:23:07.222Z,1002.18
2023-04-14T03:24:07.209Z,1002.23
2023-04-14T03:25:28.229Z,1002.20
2023-04-14T03:26:07.185Z,1002.19
2023-04-14T03:27:07.174Z,1002.15
2023-04-14T03:28:07.160Z,1002.18
2023-04-14T03:29:07.159Z,1002.18
2023-04-14T03:30:07.202Z,1002.16
2023-04-14T03:31:28.228Z,1002.21
2023-04-14T03:32:07.119Z,1002.19
2023-04-14T03:33:07.239Z,1002.19
2023-04-14T03:34:07.113Z,1002.16
2023-04-14T03:35:07.120Z,1002.17
2023-04-14T03:36:07.080Z,1002.17
2023-04-14T03:37:28.087Z,1002.16
2023-04-14T03:38:07.078Z,1002.19
2023-04-14T03:39:07.071Z,1002.19
2023-04-14T03:40:07.044Z,1002.22
2023-04-14T03:41:07.042Z,1002.24
2023-04-14T03:42:07.031Z,1002.31
2023-04-14T03:43:28.038Z,1002.29
2023-04-14T03:44:07.012Z,1002.30
2023-04-14T03:45:07.014Z,1002.32
2023-04-14T03:46:07.177Z,1002.32
2023-04-14T03:47:06.994Z,1002.32
2023-04-14T03:48:06.966Z,1002.33
2023-04-14T03:49:27.969Z,1002.34
2023-04-14T03:50:06.964Z,1002.37
2023-04-14T03:51:06.948Z,1002.39
2023-04-14T03:52:06.929Z,1002.36
2023-04-14T03:53:06.932Z,1002.34
2023-04-14T03:54:06.907Z,1002.32
2023-04-14T03:55:27.931Z,1002.32
2023-04-14T03:56:06.906Z,1002.39
2023-04-14T03:57:06.884Z,1002.38
2023-04-14T03:58:06.868Z,1002.38
2023-04-14T03:59:08.425Z,1002.39
2023-04-14T04:00:06.845Z,1002.39
2023-04-14T04:01:27.852Z,1002.40
2023-04-14T04:02:06.905Z,1002.41
2023-04-14T04:03:06.964Z,1002.40
2023-04-14T04:04:06.985Z,1002.39
2023-04-14T04:05:06.846Z,1002.43
2023-04-14T04:06:06.809Z,1002.37
2023-04-14T04:07:27.801Z,1002.37
2023-04-14T04:08:06.778Z,1002.39
2023-04-14T04:09:06.789Z,1002.40
2023-04-14T04:10:06.777Z,1002.39
2023-04-14T04:11:06.782Z,1002.41
2023-04-14T04:12:06.773Z,1002.40
2023-04-14T04:13:27.734Z,1002.40
2023-04-14T04:14:06.738Z,1002.41
2023-04-14T04:15:06.707Z,1002.42
2023-04-14T04:16:06.739Z,1002.36
2023-04-14T04:17:06.685Z,1002.40
2023-04-14T04:18:06.670Z,1002.36
2023-04-14T04:19:27.691Z,1002.43
2023-04-14T04:20:07.381Z,1002.44
2023-04-14T04:21:06.655Z,1002.42
2023-04-14T04:22:06.643Z,1002.44
2023-04-14T04:23:06.628Z,1002.40
2023-04-14T04:24:06.610Z,1002.39
2023-04-14T04:25:27.630Z,1002.40
2023-04-14T04:26:06.589Z,1002.38
2023-04-14T04:27:12.053Z,1002.37
2023-04-14T04:28:06.581Z,1002.38
2023-04-14T04:29:06.572Z,1002.40
2023-04-14T04:30:06.554Z,1002.37
2023-04-14T04:31:27.583Z,1002.42
2023-04-14T04:32:06.610Z,1002.40
2023-04-14T04:33:06.550Z,1002.40
2023-04-14T04:34:06.556Z,1002.44
2023-04-14T04:35:06.505Z,1002.45
2023-04-14T04:36:06.613Z,1002.42
2023-04-14T04:37:27.494Z,1002.44
2023-04-14T04:38:06.477Z,1002.45
2023-04-14T04:39:06.470Z,1002.48
2023-04-14T04:40:06.450Z,1002.44
2023-04-14T04:41:06.442Z,1002.50
2023-04-14T04:42:06.428Z,1002.53
2023-04-14T04:43:27.449Z,1002.49
2023-04-14T04:44:06.429Z,1002.54
2023-04-14T04:45:06.401Z,1002.54
2023-04-14T04:46:06.444Z,1002.57
2023-04-14T04:47:06.394Z,1002.59
2023-04-14T04:48:06.399Z,1002.61
2023-04-14T04:49:27.380Z,1002.60
2023-04-14T04:50:06.355Z,1002.63
2023-04-14T04:51:06.346Z,1002.63
2023-04-14T04:52:06.348Z,1002.63
2023-04-14T04:53:06.342Z,1002.64
2023-04-14T04:54:06.308Z,1002.67
2023-04-14T04:55:27.309Z,1002.63
2023-04-14T04:56:06.293Z,1002.65
2023-04-14T04:57:06.288Z,1002.61
2023-04-14T04:58:06.264Z,1002.62
2023-04-14T04:59:06.257Z,1002.63
2023-04-14T05:00:06.243Z,1002.65
2023-04-14T05:01:27.273Z,1002.63
2023-04-14T05:02:06.290Z,1002.63
2023-04-14T05:03:06.342Z,1002.67
2023-04-14T05:04:06.249Z,1002.64
2023-04-14T05:05:06.197Z,1002.66
2023-04-14T05:06:06.197Z,1002.66
2023-04-14T05:07:27.190Z,1002.66
2023-04-14T05:08:06.171Z,1002.68
2023-04-14T05:09:06.171Z,1002.69
2023-04-14T05:10:06.149Z,1002.70
2023-04-14T05:11:06.150Z,1002.71
2023-04-14T05:12:06.126Z,1002.72
2023-04-14T05:13:27.157Z,1002.73
2023-04-14T05:14:06.105Z,1002.76
2023-04-14T05:15:06.111Z,1002.74
2023-04-14T05:16:06.091Z,1002.74
2023-04-14T05:17:06.089Z,1002.78
2023-04-14T05:18:06.102Z,1002.77
2023-04-14T05:19:27.067Z,1002.75
2023-04-14T05:20:06.046Z,1002.75
2023-04-14T05:21:06.044Z,1002.72
2023-04-14T05:22:06.033Z,1002.73
2023-04-14T05:23:06.016Z,1002.73
2023-04-14T05:24:06.012Z,1002.73
2023-04-14T05:25:27.010Z,1002.72
2023-04-14T05:26:27.071Z,1002.72
2023-04-14T05:27:14.376Z,1002.76
2023-04-14T05:28:05.965Z,1002.81
2023-04-14T05:29:05.967Z,1002.80
2023-04-14T05:30:05.942Z,1002.79
2023-04-14T05:31:27.008Z,1002.76
2023-04-14T05:32:05.922Z,1002.78
2023-04-14T05:33:05.928Z,1002.77
2023-04-14T05:34:05.908Z,1002.75
2023-04-14T05:35:05.896Z,1002.73
2023-04-14T05:36:05.891Z,1002.71
2023-04-14T05:37:26.890Z,1002.65
2023-04-14T05:38:05.861Z,1002.68
2023-04-14T05:39:05.861Z,1002.68
2023-04-14T05:40:05.852Z,1002.64
2023-04-14T05:41:05.831Z,1002.62
2023-04-14T05:42:05.824Z,1002.60
2023-04-14T05:43:26.823Z,1002.62
2023-04-14T05:44:05.817Z,1002.61
2023-04-14T05:45:05.790Z,1002.65
2023-04-14T05:46:05.870Z,1002.67
2023-04-14T05:47:05.808Z,1002.69
2023-04-14T05:48:05.788Z,1002.68
2023-04-14T05:49:26.756Z,1002.73
2023-04-14T05:50:05.752Z,1002.80
2023-04-14T05:51:05.767Z,1002.76
2023-04-14T05:52:05.730Z,1002.74
2023-04-14T05:53:05.720Z,1002.78
2023-04-14T05:54:05.710Z,1002.77
2023-04-14T05:55:26.701Z,1002.78
2023-04-14T05:56:05.705Z,1002.75
2023-04-14T05:57:05.679Z,1002.72
2023-04-14T05:58:05.660Z,1002.71
2023-04-14T05:59:05.651Z,1002.71
2023-04-14T06:00:05.643Z,1002.67
2023-04-14T06:01:26.642Z,1002.70
2023-04-14T06:02:05.696Z,1002.71
2023-04-14T06:03:05.984Z,1002.73
2023-04-14T06:04:06.180Z,1002.74
2023-04-14T06:05:05.726Z,1002.75
2023-04-14T06:06:05.603Z,1002.73
2023-04-14T06:07:26.580Z,1002.78
2023-04-14T06:08:05.563Z,1002.73
2023-04-14T06:09:05.555Z,1002.76
2023-04-14T06:10:05.559Z,1002.77
2023-04-14T06:11:05.550Z,1002.74
2023-04-14T06:12:05.538Z,1002.74
2023-04-14T06:13:27.145Z,1002.78
2023-04-14T06:14:05.524Z,1002.75
2023-04-14T06:15:05.505Z,1002.80
2023-04-14T06:16:05.553Z,1002.76
2023-04-14T06:17:05.475Z,1002.74
2023-04-14T06:18:05.481Z,1002.72
2023-04-14T06:19:26.470Z,1002.74
2023-04-14T06:20:05.465Z,1002.72
2023-04-14T06:21:05.452Z,1002.75
2023-04-14T06:22:05.420Z,1002.69
2023-04-14T06:23:05.412Z,1002.67
2023-04-14T06:24:05.400Z,1002.70
2023-04-14T06:25:26.396Z,1002.73
2023-04-14T06:26:05.396Z,1002.72
2023-04-14T06:27:05.395Z,1002.67
2023-04-14T06:28:05.364Z,1002.72
2023-04-14T06:29:05.353Z,1002.70
2023-04-14T06:30:05.342Z,1002.69
2023-04-14T06:31:26.365Z,1002.76
2023-04-14T06:32:05.390Z,1002.74
2023-04-14T06:33:05.320Z,1002.71
2023-04-14T06:34:05.300Z,1002.69
2023-04-14T06:35:05.297Z,1002.64
2023-04-14T06:36:05.309Z,1002.64
2023-04-14T06:37:26.297Z,1002.60
2023-04-14T06:38:05.265Z,1002.58
2023-04-14T06:39:05.251Z,1002.61
2023-04-14T06:40:05.249Z,1002.61
2023-04-14T06:41:05.237Z,1002.54
2023-04-14T06:42:05.223Z,1002.53
2023-04-14T06:43:26.213Z,1002.57
2023-04-14T06:44:05.202Z,1002.54
2023-04-14T06:45:05.210Z,1002.54
2023-04-14T06:46:05.195Z,1002.56
2023-04-14T06:47:05.167Z,1002.56
2023-04-14T06:48:05.207Z,1002.52
2023-04-14T06:49:26.157Z,1002.53
2023-04-14T06:50:05.154Z,1002.54
2023-04-14T06:51:05.133Z,1002.52
2023-04-14T06:52:05.146Z,1002.50
2023-04-14T06:53:05.119Z,1002.51
2023-04-14T06:54:05.112Z,1002.54
2023-04-14T06:55:26.104Z,1002.47
2023-04-14T06:56:05.089Z,1002.48
2023-04-14T06:57:05.081Z,1002.49
2023-04-14T06:58:05.102Z,1002.49
2023-04-14T06:59:05.066Z,1002.47
2023-04-14T07:00:05.057Z,1002.48
2023-04-14T07:01:26.076Z,1002.48
2023-04-14T07:02:05.071Z,1002.45
2023-04-14T07:03:05.064Z,1002.46
2023-04-14T07:04:07.593Z,1002.44
2023-04-14T07:05:05.109Z,1002.42
2023-04-14T07:06:04.984Z,1002.41
2023-04-14T07:07:25.977Z,1002.38
2023-04-14T07:08:04.974Z,1002.40
2023-04-14T07:09:04.998Z,1002.33
2023-04-14T07:10:05.018Z,1002.37
2023-04-14T07:11:04.933Z,1002.33
2023-04-14T07:12:04.954Z,1002.40
2023-04-14T07:13:25.922Z,1002.36
2023-04-14T07:14:04.913Z,1002.34
2023-04-14T07:15:04.907Z,1002.35
2023-04-14T07:16:04.918Z,1002.34
2023-04-14T07:17:04.884Z,1002.35
2023-04-14T07:18:04.942Z,1002.31
2023-04-14T07:19:25.869Z,1002.30
2023-04-14T07:20:04.867Z,1002.30
2023-04-14T07:21:04.846Z,1002.28
2023-04-14T07:22:04.849Z,1002.27
2023-04-14T07:23:04.815Z,1002.29
2023-04-14T07:24:04.813Z,1002.27
2023-04-14T07:25:25.803Z,1002.26
2023-04-14T07:26:04.799Z,1002.25
2023-04-14T07:27:04.797Z,1002.25
2023-04-14T07:28:04.810Z,1002.31
2023-04-14T07:29:04.778Z,1002.26
2023-04-14T07:30:04.759Z,1002.26
2023-04-14T07:31:25.804Z,1002.25
2023-04-14T07:32:04.743Z,1002.22
2023-04-14T07:33:04.807Z,1002.24
2023-04-14T07:34:04.744Z,1002.21
2023-04-14T07:35:04.722Z,1002.20
2023-04-14T07:36:04.722Z,1002.19
2023-04-14T07:37:25.701Z,1002.17
2023-04-14T07:38:04.694Z,1002.15
2023-04-14T07:39:04.677Z,1002.16
2023-04-14T07:40:04.674Z,1002.15
2023-04-14T07:41:04.655Z,1002.13
2023-04-14T07:42:04.656Z,1002.15
2023-04-14T07:43:25.656Z,1002.12
2023-04-14T07:44:04.630Z,1002.13
2023-04-14T07:45:04.632Z,1002.15
2023-04-14T07:46:04.632Z,1002.17
2023-04-14T07:47:04.595Z,1002.21
2023-04-14T07:48:04.640Z,1002.16
2023-04-14T07:49:25.587Z,1002.18
2023-04-14T07:50:04.580Z,1002.13
2023-04-14T07:51:04.569Z,1002.19
2023-04-14T07:52:04.575Z,1002.16
2023-04-14T07:53:04.610Z,1002.17
2023-04-14T07:54:04.549Z,1002.16
2023-04-14T07:55:27.005Z,1002.20
2023-04-14T07:56:04.539Z,1002.15
2023-04-14T07:57:04.513Z,1002.16
2023-04-14T07:58:04.508Z,1002.20
2023-04-14T07:59:04.503Z,1002.17
2023-04-14T08:00:04.505Z,1002.23
2023-04-14T08:01:25.519Z,1002.24
2023-04-14T08:02:04.545Z,1002.25
2023-04-14T08:03:04.579Z,1002.23
2023-04-14T08:04:04.711Z,1002.22
2023-04-14T08:05:04.590Z,1002.23
2023-04-14T08:06:04.439Z,1002.21
2023-04-14T08:07:25.430Z,1002.23
2023-04-14T08:08:04.426Z,1002.25
2023-04-14T08:09:04.429Z,1002.20
2023-04-14T08:10:04.420Z,1002.21
2023-04-14T08:11:04.459Z,1002.18
2023-04-14T08:12:04.405Z,1002.14
2023-04-14T08:13:25.387Z,1002.13
2023-04-14T08:14:04.373Z,1002.13
2023-04-14T08:15:04.366Z,1002.10
2023-04-14T08:16:04.386Z,1002.13
2023-04-14T08:17:04.347Z,1002.15
2023-04-14T08:18:04.415Z,1002.12
2023-04-14T08:19:25.321Z,1002.12
2023-04-14T08:20:04.349Z,1002.16
2023-04-14T08:21:04.306Z,1002.11
2023-04-14T08:22:04.322Z,1002.13
2023-04-14T08:23:04.303Z,1002.13
2023-04-14T08:24:04.280Z,1002.09
2023-04-14T08:25:25.281Z,1002.08
2023-04-14T08:26:04.294Z,1002.08
2023-04-14T08:27:04.255Z,1002.09
2023-04-14T08:28:04.247Z,1002.07
2023-04-14T08:29:04.298Z,1002.10
2023-04-14T08:30:04.224Z,1002.10
2023-04-14T08:31:25.236Z,1002.09
2023-04-14T08:32:04.272Z,1002.10
2023-04-14T08:33:04.288Z,1002.09
2023-04-14T08:34:04.198Z,1002.15
2023-04-14T08:35:35.111Z,1002.08
2023-04-14T08:36:04.184Z,1002.08
2023-04-14T08:37:25.174Z,1002.07
2023-04-14T08:38:04.176Z,1002.10
2023-04-14T08:39:04.172Z,1002.09
2023-04-14T08:40:04.170Z,1002.06
2023-04-14T08:41:04.145Z,1002.04
2023-04-14T08:42:04.131Z,1002.07
2023-04-14T08:43:25.128Z,1002.04
2023-04-14T08:44:04.129Z,1002.05
2023-04-14T08:45:04.106Z,1002.02
2023-04-14T08:46:04.127Z,1002.00
2023-04-14T08:47:04.096Z,1002.00
2023-04-14T08:48:04.126Z,1002.00
2023-04-14T08:49:25.113Z,1002.00
2023-04-14T08:50:04.090Z,1001.99
2023-04-14T08:51:04.070Z,1002.00
2023-04-14T08:52:04.076Z,1001.99
2023-04-14T08:53:04.075Z,1001.97
2023-04-14T08:54:04.260Z,1001.95
2023-04-14T08:55:25.053Z,1001.95
2023-04-14T08:56:04.040Z,1001.96
2023-04-14T08:57:04.031Z,1001.93
2023-04-14T08:58:04.034Z,1001.93
2023-04-14T08:59:04.007Z,1001.92
2023-04-14T09:00:04.008Z,1001.91
2023-04-14T09:01:25.109Z,1001.87
2023-04-14T09:02:04.117Z,1001.89
2023-04-14T09:03:04.136Z,1001.90
2023-04-14T09:04:04.314Z,1001.90
2023-04-14T09:05:03.961Z,1001.91
2023-04-14T09:06:03.972Z,1001.87
2023-04-14T09:07:24.955Z,1001.87
2023-04-14T09:08:03.958Z,1001.86
2023-04-14T09:09:03.947Z,1001.85
2023-04-14T09:10:03.937Z,1001.84
2023-04-14T09:11:03.927Z,1001.86
2023-04-14T09:12:03.932Z,1001.84
2023-04-14T09:13:24.917Z,1001.87
2023-04-14T09:14:04.183Z,1001.92
2023-04-14T09:15:03.909Z,1001.93
2023-04-14T09:16:03.898Z,1001.91
2023-04-14T09:17:03.919Z,1001.92
2023-04-14T09:18:03.896Z,1001.89
2023-04-14T09:19:24.888Z,1001.89
2023-04-14T09:20:35.747Z,1001.89
2023-04-14T09:21:31.754Z,1001.83
2023-04-14T09:22:03.860Z,1001.85
2023-04-14T09:23:03.840Z,1001.81
2023-04-14T09:24:03.839Z,1001.85
2023-04-14T09:25:24.830Z,1001.84
2023-04-14T09:26:03.820Z,1001.86
2023-04-14T09:27:03.839Z,1001.86
2023-04-14T09:28:03.826Z,1001.87
2023-04-14T09:29:04.029Z,1001.85
2023-04-14T09:30:03.817Z,1001.86
2023-04-14T09:31:25.020Z,1001.85
2023-04-14T09:32:03.786Z,1001.84
2023-04-14T09:33:03.842Z,1001.83
2023-04-14T09:34:04.013Z,1001.83
2023-04-14T09:35:03.768Z,1001.84
2023-04-14T09:36:03.756Z,1001.83
2023-04-14T09:37:24.758Z,1001.81
2023-04-14T09:38:03.779Z,1001.85
2023-04-14T09:39:03.732Z,1001.89
2023-04-14T09:40:03.755Z,1001.86
2023-04-14T09:41:03.724Z,1001.87
2023-04-14T09:42:03.718Z,1001.84
2023-04-14T09:43:24.728Z,1001.83
2023-04-14T09:44:03.939Z,1001.84
2023-04-14T09:45:03.711Z,1001.88
2023-04-14T09:46:03.722Z,1001.89
2023-04-14T09:47:03.688Z,1001.95
2023-04-14T09:48:03.705Z,1001.90
2023-04-14T09:49:24.680Z,1001.88
2023-04-14T09:50:03.869Z,1001.88
2023-04-14T09:51:03.671Z,1001.89
2023-04-14T09:52:03.670Z,1001.89
2023-04-14T09:53:03.686Z,1001.90
2023-04-14T09:54:03.860Z,1001.90
2023-04-14T09:55:24.659Z,1001.84
2023-04-14T09:56:03.714Z,1001.90
2023-04-14T09:57:03.665Z,1001.88
2023-04-14T09:58:03.639Z,1001.85
2023-04-14T09:59:04.098Z,1001.85
2023-04-14T10:00:03.643Z,1001.82
2023-04-14T10:01:24.638Z,1001.83
2023-04-14T10:02:03.727Z,1001.82
2023-04-14T10:03:03.659Z,1001.74
2023-04-14T10:04:03.619Z,1001.74
2023-04-14T10:05:03.607Z,1001.72
2023-04-14T10:06:03.607Z,1001.70
2023-04-14T10:07:24.644Z,1001.73
2023-04-14T10:08:03.624Z,1001.77
2023-04-14T10:09:03.999Z,1001.72
2023-04-14T10:10:03.606Z,1001.67
2023-04-14T10:11:03.599Z,1001.64
2023-04-14T10:12:03.597Z,1001.71
2023-04-14T10:13:24.586Z,1001.70
2023-04-14T10:14:03.629Z,1001.73
2023-04-14T10:15:03.591Z,1001.67
2023-04-14T10:16:03.647Z,1001.69
2023-04-14T10:17:03.598Z,1001.68
2023-04-14T10:18:03.607Z,1001.62
2023-04-14T10:19:24.586Z,1001.60
2023-04-14T10:20:03.581Z,1001.60
2023-04-14T10:21:05.384Z,1001.57
2023-04-14T10:22:03.577Z,1001.56
2023-04-14T10:23:03.578Z,1001.55
2023-04-14T10:24:03.564Z,1001.46
2023-04-14T10:25:24.586Z,1001.47
2023-04-14T10:26:03.577Z,1001.46
2023-04-14T10:27:03.571Z,1001.42
2023-04-14T10:28:03.562Z,1001.41
2023-04-14T10:29:03.713Z,1001.37
2023-04-14T10:30:03.568Z,1001.33
2023-04-14T10:31:24.657Z,1001.34
2023-04-14T10:32:03.622Z,1001.37
2023-04-14T10:33:03.617Z,1001.34
2023-04-14T10:34:03.574Z,1001.34
2023-04-14T10:35:03.573Z,1001.33
2023-04-14T10:36:03.573Z,1001.32
2023-04-14T10:37:24.574Z,1001.31
2023-04-14T10:38:03.576Z,1001.31
2023-04-14T10:39:03.789Z,1001.30
2023-04-14T10:40:03.573Z,1001.33
2023-04-14T10:41:03.596Z,1001.27
2023-04-14T10:42:03.575Z,1001.30
2023-04-14T10:43:24.584Z,1001.25
2023-04-14T10:44:03.577Z,1001.21
2023-04-14T10:45:03.568Z,1001.20
2023-04-14T10:46:03.580Z,1001.11
2023-04-14T10:47:03.670Z,1001.11
2023-04-14T10:48:03.594Z,1001.09
2023-04-14T10:49:24.572Z,1001.09
2023-04-14T10:50:03.600Z,1001.11
2023-04-14T10:51:03.572Z,1001.09
2023-04-14T10:52:03.580Z,1001.09
2023-04-14T10:53:03.566Z,1001.04
2023-04-14T10:54:03.606Z,1001.07
2023-04-14T10:55:24.575Z,1001.08
2023-04-14T10:56:03.571Z,1001.02
2023-04-14T10:57:03.592Z,1001.03
2023-04-14T10:58:03.639Z,1000.96
2023-04-14T10:59:03.579Z,1000.99
2023-04-14T11:00:03.566Z,1000.99
2023-04-14T11:01:24.633Z,1001.02
2023-04-14T11:02:03.648Z,1000.99
2023-04-14T11:03:03.734Z,1000.98
2023-04-14T11:04:03.702Z,1000.98
2023-04-14T11:05:03.573Z,1000.97
2023-04-14T11:06:03.587Z,1000.92
2023-04-14T11:07:24.582Z,1000.88
2023-04-14T11:08:03.580Z,1000.87
2023-04-14T11:09:03.724Z,1000.82
2023-04-14T11:10:03.585Z,1000.81
2023-04-14T11:11:03.569Z,1000.81
2023-04-14T11:12:03.577Z,1000.78
2023-04-14T11:13:24.584Z,1000.76
2023-04-14T11:14:03.563Z,1000.84
2023-04-14T11:15:03.571Z,1000.81
2023-04-14T11:16:03.569Z,1000.83
2023-04-14T11:17:04.743Z,1000.79
2023-04-14T11:18:03.626Z,1000.82
2023-04-14T11:19:24.592Z,1000.81
2023-04-14T11:20:03.572Z,1000.74
2023-04-14T11:21:03.590Z,1000.71
2023-04-14T11:22:03.591Z,1000.71
2023-04-14T11:23:03.610Z,1000.73
2023-04-14T11:24:03.614Z,1000.75
2023-04-14T11:25:25.207Z,1000.68
2023-04-14T11:26:03.586Z,1000.66
2023-04-14T11:27:03.618Z,1000.68
2023-04-14T11:28:03.603Z,1000.71
2023-04-14T11:29:03.615Z,1000.69
2023-04-14T11:30:03.595Z,1000.68
2023-04-14T11:31:24.654Z,1000.64
2023-04-14T11:32:03.635Z,1000.65
2023-04-14T11:33:03.664Z,1000.62
2023-04-14T11:34:03.607Z,1000.59
2023-04-14T11:35:03.626Z,1000.55
2023-04-14T11:36:03.621Z,1000.56
2023-04-14T11:37:24.636Z,1000.54
2023-04-14T11:38:03.612Z,1000.53
2023-04-14T11:39:03.718Z,1000.49
2023-04-14T11:40:03.612Z,1000.56
2023-04-14T11:41:03.610Z,1000.51
2023-04-14T11:42:03.609Z,1000.55
2023-04-14T11:43:24.621Z,1000.56
2023-04-14T11:44:03.615Z,1000.52
2023-04-14T11:45:03.625Z,1000.53
2023-04-14T11:46:03.704Z,1000.49
2023-04-14T11:47:03.616Z,1000.47
2023-04-14T11:48:03.647Z,1000.50
2023-04-14T11:49:24.662Z,1000.46
2023-04-14T11:50:03.621Z,1000.47
2023-04-14T11:51:04.035Z,1000.42
2023-04-14T11:52:03.607Z,1000.44
2023-04-14T11:53:03.618Z,1000.45
2023-04-14T11:54:03.664Z,1000.37
2023-04-14T11:55:24.616Z,1000.39
2023-04-14T11:56:03.603Z,1000.41
2023-04-14T11:57:03.617Z,1000.35
2023-04-14T11:58:03.618Z,1000.32
2023-04-14T11:59:03.886Z,1000.35
2023-04-14T12:00:03.601Z,1000.37
2023-04-14T12:01:24.601Z,1000.37
2023-04-14T12:02:03.662Z,1000.28
2023-04-14T12:03:03.702Z,1000.30
2023-04-14T12:04:03.705Z,1000.26
2023-04-14T12:05:03.859Z,1000.29